Kerdonis — FGH2416 — position and weather

sailwx.info

Track history (hours):
 
Tides and Currents Weather Stations Pressure Air Temp Water Temp Dewpoint Dewpoint Depression Visibility Wind Speed Wind Dir Waves Ship Positions

Kerdonis

Last reported at 2017-Sep-17 18:21 UTC. Time now 2017-Sep-23 04:10 UTC.
Position N 47°44' W 003°21'.

Length 30 m; draft 1.8 m.

Type: Passenger vessel. MMSI: 227075870.

Date/timePositionNaut miles runAvg speedWind from/ knotsBaromVisibWave heightAir tempDewpointWater temp
2017-Sep-17 18:21N 47°44' W 003°21'1 1.8
2017-Sep-17 18:00N 47°44' W 003°21'612.7
2017-Sep-17 17:30N 47°39' W 003°27'1 2.4
2017-Sep-17 17:01N 47°40' W 003°26'611.6
2017-Sep-17 16:31N 47°44' W 003°21'0 0.4
2017-Sep-17 16:01N 47°44' W 003°21'713.7
2017-Sep-17 15:30N 47°39' W 003°27'0 0.1
2017-Sep-17 15:00N 47°39' W 003°27'510.7
2017-Sep-17 14:30N 47°43' W 003°22'2 3.4
2017-Sep-17 14:00N 47°44' W 003°21'0 0.0
2017-Sep-17 13:30N 47°44' W 003°21'0 0.0
2017-Sep-17 13:00N 47°44' W 003°21'0 0.0
2017-Sep-17 12:30N 47°44' W 003°21'0 0.0
2017-Sep-17 09:28N 47°44' W 003°21'1 2.1
2017-Sep-17 09:00N 47°44' W 003°22'1 1.8
2017-Sep-17 08:30N 47°44' W 003°21'3 6.2
2017-Sep-17 08:00N 47°42' W 003°23'4 7.8
2017-Sep-17 07:31N 47°39' W 003°27'2 3.3
2017-Sep-17 07:00N 47°40' W 003°25'510.7
2017-Sep-17 06:30N 47°44' W 003°21'0 0.8
2017-Sep-17 06:00N 47°44' W 003°21'  
2017-Sep-10 16:20N 47°44' W 003°21'0 0.7
2017-Sep-10 16:00N 47°44' W 003°21'713.9
2017-Sep-10 15:31N 47°39' W 003°27'0 0.0
2017-Sep-10 15:01N 47°39' W 003°27'7 7.0
2017-Sep-10 14:00N 47°44' W 003°21'0 0.7
2017-Sep-10 13:30N 47°44' W 003°21'  
Track history (hours):
 
Tides and Currents Weather Stations Pressure Air Temp Water Temp Dewpoint Dewpoint Depression Visibility Wind Speed Wind Dir Waves Ship Positions

Kerdonis

Last reported at 2017-Sep-17 18:21 UTC. Time now 2017-Sep-23 04:10 UTC.
Position N 47°44' W 003°21'.

Length 30 m; draft 1.8 m.

Type: Passenger vessel. MMSI: 227075870.

Date/timePositionNaut miles runAvg speedWind from/ knotsBaromVisibWave heightAir tempDewpointWater temp
2017-Sep-17 18:21N 47°44' W 003°21'1 1.8
2017-Sep-17 18:00N 47°44' W 003°21'612.7
2017-Sep-17 17:30N 47°39' W 003°27'1 2.4
2017-Sep-17 17:01N 47°40' W 003°26'611.6
2017-Sep-17 16:31N 47°44' W 003°21'0 0.4
2017-Sep-17 16:01N 47°44' W 003°21'713.7
2017-Sep-17 15:30N 47°39' W 003°27'0 0.1
2017-Sep-17 15:00N 47°39' W 003°27'510.7
2017-Sep-17 14:30N 47°43' W 003°22'2 3.4
2017-Sep-17 14:00N 47°44' W 003°21'0 0.0
2017-Sep-17 13:30N 47°44' W 003°21'0 0.0
2017-Sep-17 13:00N 47°44' W 003°21'0 0.0
2017-Sep-17 12:30N 47°44' W 003°21'0 0.0
2017-Sep-17 09:28N 47°44' W 003°21'1 2.1
2017-Sep-17 09:00N 47°44' W 003°22'1 1.8
2017-Sep-17 08:30N 47°44' W 003°21'3 6.2
2017-Sep-17 08:00N 47°42' W 003°23'4 7.8
2017-Sep-17 07:31N 47°39' W 003°27'2 3.3
2017-Sep-17 07:00N 47°40' W 003°25'510.7
2017-Sep-17 06:30N 47°44' W 003°21'0 0.8
2017-Sep-17 06:00N 47°44' W 003°21'  
2017-Sep-10 16:20N 47°44' W 003°21'0 0.7
2017-Sep-10 16:00N 47°44' W 003°21'713.9
2017-Sep-10 15:31N 47°39' W 003°27'0 0.0
2017-Sep-10 15:01N 47°39' W 003°27'7 7.0
2017-Sep-10 14:00N 47°44' W 003°21'0 0.7
2017-Sep-10 13:30N 47°44' W 003°21'  

Dump ship's entire track history